This demonstration page uses our WeatherBlox Daily Observations layout. Learn more.

38.89511, -77.03637

Hourly Observations for September 4, 2017

Temp ( °F °C ) Dew Point ( °F °C ) Humidity (%) Winds ( mph kmh ) Pressure ( in mb ) Visibility ( mi km ) Precip ( " mm )
12:52 am 00:52 Mostly Clear 66 18.9 58 14.4 75 75 S 6 9 30 1016 10 16.09344 0 0
1:52 am 01:52 Clear 64 17.8 59 15 84 84 S 5 7 30 1016 10 16.09344 0 0
2:52 am 02:52 Mostly Clear 66 18.9 58 14.4 75 75 SE 3 6 30 1016 10 16.09344 0 0
3:52 am 03:52 Clear 63 17.2 58 14.4 84 84 SSW 5 7 30 1016 10 16.09344 0 0
4:52 am 04:52 Mostly Clear 62 16.7 59 15 90 90 SSW 6 9 30 1016 10 16.09344 0 0
5:52 am 05:52 Partly Cloudy 62 16.7 57 13.9 84 84 S 7 11 30.03 1017 10 16.09344 0 0
6:52 am 06:52 Mostly Cloudy 63 17.2 57 13.9 81 81 S 7 11 30.03 1017 10 16.09344 0 0
7:52 am 07:52 Mostly Cloudy 65 18.3 58 14.4 78 78 S 6 9 30.03 1017 10 16.09344 0 0
8:52 am 08:52 Mostly Cloudy 68 20 59 15 73 73 S 6 9 30.03 1017 10 16.09344 0 0
9:52 am 09:52 Cloudy 70 21.1 62 16.7 76 76 S 8 13 30.03 1017 10 16.09344 0 0
10:52 am 10:52 Mostly Cloudy 74 23.3 65 18.3 74 74 S 8 13 30.03 1017 10 16.09344 0 0
11:52 am 11:52 Mostly Cloudy 78 25.6 64 17.8 62 62 S 9 15 30 1016 10 16.09344 0 0
12:52 pm 12:52 Partly Cloudy 81 27.2 56 13.3 42 42 S 12 19 30 1016 10 16.09344 0 0
1:52 pm 13:52 Sunny 81 27.2 60 15.6 49 49 S 15 24 29.97 1015 10 16.09344 0 0
2:52 pm 14:52 Partly Cloudy 82 27.8 61 16.1 49 49 SSW 16 26 29.94 1014 10 16.09344 0 0
3:52 pm 15:52 Partly Cloudy 82 27.8 62 16.7 51 51 S 7 11 29.94 1014 10 16.09344 0 0
4:52 pm 16:52 Partly Cloudy 82 27.8 63 17.2 53 53 S 16 26 29.91 1013 10 16.09344 0 0
5:52 pm 17:52 Mostly Sunny 81 27.2 65 18.3 58 58 S 12 19 29.88 1012 10 16.09344 0 0
6:52 pm 18:52 Mostly Sunny 79 26.1 67 19.4 67 67 S 9 15 29.88 1012 10 16.09344 0 0
7:52 pm 19:52 Clear 77 25 68 20 74 74 S 9 15 29.85 1011 10 16.09344 0 0
8:52 pm 20:52 Clear 76 24.4 68 20 77 77 S 10 17 29.85 1011 10 16.09344 0 0
9:52 pm 21:52 Clear 76 24.4 67 19.4 74 74 S 12 19 29.85 1011 10 16.09344 0 0
10:52 pm 22:52 Mostly Clear 76 24.4 67 19.4 74 74 S 12 19 29.85 1011 10 16.09344 0 0
11:52 pm 23:52 Clear 74 23.3 67 19.4 79 79 SSW 10 17 29.85 1011 10 16.09344 0 0

Powered by AerisWeather